Terminal Aerodrome Forecast
Issued by NWS

Home | Current Version | Previous Version | Graphics & Text | Print | Product List | Glossary On
Versions: 1 2 3 4 5 6 7 8 9 10 11 12 13 14 15 16 17 18
000
FTUS43 KABR 301600 AAF
TAFPIR
TAF AMD
KPIR 301655Z 3017/3112 15006KT P6SM SKC
     FM302100 13014KT P6SM SCT200
     FM310900 21010KT P6SM OVC100
     FM311100 29012KT 5SM BR BKN010=

USA.gov is the U.S. government's official web portal to all federal, state and local government web resources and services.